Terminal Aerodrome Forecast
Issued by NWS Louisville, KY

Home | Current Version | Previous Version | Text Only | Print | Product List | Glossary On
Versions: 1 2 3 4 5 6 7 8 9 10 11 12 13 14 15 16 17 18
843
FTUS43 KLMK 220521
TAFBWG
TAF
KBWG 220521Z 2206/2306 10005KT P6SM SCT250
     FM220800 10004KT 5SM BR VCSH SCT008 BKN035
     FM221400 11006KT 4SM -SHRA VCTS BKN008CB
     FM230000 02009G17KT 5SM -SHRA BR BKN015=

USA.gov is the U.S. government's official web portal to all federal, state and local government web resources and services.